Time;durP1;ratioP1;P1;durP2;ratioP2;P2;SDS_P1;SDS_P2;PMS_P1;PMS_P2;Temp;Humidity;BMP_temperature;BMP_pressure;BME280_temperature;BME280_humidity;BME280_pressure;Samples;Min_cycle;Max_cycle;Signal;HPM_P1;HPM_P2
2023/04/11 00:00:00;;;;;;;7.20;4.35;;;;;;;6.69;91.95;94402.50;4991216;28;20212;-76
2023/04/11 00:02:29;;;;;;;7.57;3.85;;;;;;;6.62;91.83;94402.13;4991404;28;20229;-78
2023/04/11 00:04:57;;;;;;;9.45;5.00;;;;;;;6.66;92.31;94397.72;4990682;28;20213;-76
2023/04/11 00:07:24;;;;;;;8.13;4.53;;;;;;;6.54;93.11;94389.44;4977326;28;20253;-75
2023/04/11 00:09:51;;;;;;;10.27;4.60;;;;;;;6.64;93.16;94389.97;4990931;28;20672;-76
2023/04/11 00:12:18;;;;;;;8.55;4.93;;;;;;;6.55;92.77;94374.88;4990573;28;20579;-75
2023/04/11 00:14:47;;;;;;;7.22;3.97;;;;;;;6.53;93.25;94382.44;4990386;28;20221;-74
2023/04/11 00:17:16;;;;;;;9.38;4.30;;;;;;;6.52;93.39;94386.25;4965276;28;20292;-76
2023/04/11 00:19:44;;;;;;;7.80;4.15;;;;;;;6.43;93.46;94376.22;4991176;28;20206;-76
2023/04/11 00:22:12;;;;;;;6.20;3.97;;;;;;;6.43;93.79;94373.53;4990664;28;20699;-77
2023/04/11 00:24:39;;;;;;;9.18;5.18;;;;;;;6.36;93.81;94378.56;4976434;28;20210;-74
2023/04/11 00:27:06;;;;;;;5.28;3.45;;;;;;;6.40;93.50;94379.53;4979293;28;20573;-75
2023/04/11 00:29:34;;;;;;;10.00;5.00;;;;;;;6.44;93.33;94368.94;4985658;28;20281;-74
2023/04/11 00:32:01;;;;;;;7.13;4.55;;;;;;;6.41;93.53;94375.75;4979618;28;20197;-74
2023/04/11 00:34:29;;;;;;;6.57;3.80;;;;;;;6.36;93.43;94367.78;4990899;28;20206;-76
2023/04/11 00:36:56;;;;;;;5.40;3.97;;;;;;;6.41;92.92;94381.13;4990916;28;20667;-76
2023/04/11 00:39:25;;;;;;;8.23;4.72;;;;;;;6.47;93.05;94375.59;4990480;28;20256;-75
2023/04/11 00:41:52;;;;;;;9.05;4.53;;;;;;;6.51;92.91;94373.88;4990655;28;20244;-75
2023/04/11 00:44:19;;;;;;;8.20;4.70;;;;;;;6.55;92.58;94377.56;4990056;28;20209;-75
2023/04/11 00:46:46;;;;;;;7.78;4.38;;;;;;;6.51;92.29;94373.88;4989256;28;20233;-75
2023/04/11 00:49:13;;;;;;;4.80;3.45;;;;;;;6.52;92.34;94370.91;4986060;28;20209;-75
2023/04/11 00:51:41;;;;;;;7.53;4.57;;;;;;;6.61;92.25;94369.03;4960122;28;20214;-75
2023/04/11 00:54:09;;;;;;;6.38;3.95;;;;;;;6.62;91.91;94369.84;4985152;28;20217;-74
2023/04/11 00:56:36;;;;;;;5.50;3.47;;;;;;;6.66;91.36;94376.19;4979036;28;20206;-74
2023/04/11 00:59:03;;;;;;;6.47;3.85;;;;;;;6.74;91.17;94378.13;4961540;28;20213;-75
2023/04/11 01:01:34;;;;;;;9.55;4.43;;;;;;;6.73;91.13;94371.94;4989802;28;20210;-74
2023/04/11 01:04:01;;;;;;;10.00;4.90;;;;;;;6.70;91.54;94369.06;4976968;28;20206;-75
2023/04/11 01:06:31;;;;;;;8.02;4.65;;;;;;;6.72;91.81;94375.75;4978350;28;20246;-75
2023/04/11 01:08:59;;;;;;;4.75;3.50;;;;;;;6.68;91.42;94374.78;4983330;28;20210;-75
2023/04/11 01:11:27;;;;;;;6.90;3.65;;;;;;;6.71;91.63;94373.34;4981567;28;20210;-75
2023/04/11 01:13:55;;;;;;;4.53;2.92;;;;;;;6.64;91.48;94370.31;4989280;28;20699;-75
2023/04/11 01:16:22;;;;;;;9.95;5.78;;;;;;;6.68;91.87;94368.63;4989244;28;20200;-74
2023/04/11 01:18:49;;;;;;;7.03;4.57;;;;;;;6.71;91.51;94367.97;4989118;28;20619;-75
2023/04/11 01:21:18;;;;;;;6.45;3.78;;;;;;;6.68;91.24;94376.69;4989457;28;20210;-75
2023/04/11 01:23:47;;;;;;;11.52;5.00;;;;;;;6.66;91.66;94376.19;4982386;28;20217;-74
2023/04/11 01:26:15;;;;;;;12.82;4.70;;;;;;;6.62;91.55;94373.31;4983724;28;20308;-75
2023/04/11 01:28:41;;;;;;;4.60;3.47;;;;;;;6.68;91.76;94385.56;4982266;28;20293;-74
2023/04/11 01:31:08;;;;;;;7.93;4.47;;;;;;;6.62;92.25;94376.00;4983851;28;20202;-74
2023/04/11 01:33:35;;;;;;;10.10;5.18;;;;;;;6.64;92.28;94367.63;4989039;28;20694;-75
2023/04/11 01:36:03;;;;;;;5.85;3.20;;;;;;;6.63;91.74;94371.44;4988973;28;20214;-74
2023/04/11 01:38:30;;;;;;;7.82;4.00;;;;;;;6.61;92.06;94368.25;4989067;28;20774;-75
2023/04/11 01:41:00;;;;;;;11.70;4.13;;;;;;;6.56;92.23;94365.69;4976042;28;20713;-75
2023/04/11 01:43:27;;;;;;;4.75;3.50;;;;;;;6.60;92.45;94366.66;4989118;28;20232;-74
2023/04/11 01:45:54;;;;;;;6.85;4.05;;;;;;;6.64;91.95;94367.63;4988583;28;20791;-74
2023/04/11 01:48:20;;;;;;;9.27;4.32;;;;;;;6.60;91.98;94366.66;4988499;28;20676;-75
2023/04/11 01:50:47;;;;;;;7.97;4.75;;;;;;;6.61;92.55;94368.25;4988953;28;20329;-75
2023/04/11 01:53:14;;;;;;;10.73;5.97;;;;;;;6.58;92.10;94358.09;4988314;28;20213;-74
2023/04/11 01:55:41;;;;;;;7.50;4.40;;;;;;;6.53;92.36;94363.63;4985921;28;20684;-76
2023/04/11 01:58:09;;;;;;;6.68;3.58;;;;;;;6.57;92.51;94351.13;4960018;28;20258;-74
2023/04/11 02:00:36;;;;;;;8.85;5.18;;;;;;;6.50;92.52;94356.16;4981442;28;20217;-74
2023/04/11 02:03:03;;;;;;;8.32;5.35;;;;;;;6.53;92.59;94348.28;4988344;28;20206;-75
2023/04/11 02:05:30;;;;;;;9.95;5.75;;;;;;;6.56;92.80;94357.63;4988485;28;20312;-74
2023/04/11 02:07:57;;;;;;;8.65;4.55;;;;;;;6.50;92.55;94362.34;4988192;28;20275;-73
2023/04/11 02:10:24;;;;;;;8.82;5.03;;;;;;;6.46;92.71;94349.78;4974885;28;20280;-75
2023/04/11 02:12:51;;;;;;;9.35;4.93;;;;;;;6.47;92.38;94356.78;4988066;28;20208;-75
2023/04/11 02:15:19;;;;;;;5.22;3.78;;;;;;;6.43;92.40;94340.44;4975001;28;20206;-74
2023/04/11 02:17:46;;;;;;;6.90;3.83;;;;;;;6.40;92.34;94351.84;4988051;28;20209;-76
2023/04/11 02:20:14;;;;;;;8.82;5.05;;;;;;;6.37;92.64;94353.25;4988029;28;20288;-75
2023/04/11 02:22:41;;;;;;;6.40;4.20;;;;;;;6.41;91.75;94348.84;4988437;28;20201;-74
2023/04/11 02:25:08;;;;;;;8.43;4.43;;;;;;;6.47;91.25;94359.47;4975013;28;20231;-75
2023/04/11 02:27:35;;;;;;;6.13;4.32;;;;;;;6.38;91.67;94352.16;4988240;28;20225;-75
2023/04/11 02:30:04;;;;;;;6.70;4.53;;;;;;;6.42;91.54;94350.41;4988123;28;20619;-75
2023/04/11 02:32:34;;;;;;;8.98;5.10;;;;;;;6.47;91.50;94357.56;4988565;28;20659;-79
2023/04/11 02:35:01;;;;;;;7.38;4.65;;;;;;;6.41;91.46;94354.22;4988570;28;20745;-74
2023/04/11 02:37:28;;;;;;;8.82;5.35;;;;;;;6.37;91.79;94352.44;4988177;28;20212;-74
2023/04/11 02:39:55;;;;;;;8.30;4.80;;;;;;;6.35;91.60;94350.06;4988097;28;20205;-75
2023/04/11 02:42:22;;;;;;;8.55;3.95;;;;;;;6.34;91.68;94361.13;4975032;28;20691;-75
2023/04/11 02:44:49;;;;;;;7.05;3.95;;;;;;;6.37;91.48;94353.25;4988345;28;20205;-74
2023/04/11 02:47:15;;;;;;;10.88;4.68;;;;;;;6.34;91.76;94359.22;4988035;28;20240;-75
2023/04/11 02:49:44;;;;;;;8.18;5.28;;;;;;;6.30;91.91;94358.25;4987896;28;20208;-75
2023/04/11 02:52:10;;;;;;;14.60;6.43;;;;;;;6.28;91.76;94354.31;4974371;28;20205;-74
2023/04/11 02:54:37;;;;;;;10.98;6.30;;;;;;;6.32;91.75;94349.88;4987774;28;20209;-75
2023/04/11 02:57:04;;;;;;;10.15;5.90;;;;;;;6.34;91.46;94348.47;4987411;28;20235;-74
2023/04/11 02:59:31;;;;;;;10.30;5.72;;;;;;;6.32;91.55;94336.44;4987952;28;20209;-73
2023/04/11 03:01:58;;;;;;;11.38;5.97;;;;;;;6.36;91.74;94338.19;4987595;28;20206;-73
2023/04/11 03:04:25;;;;;;;11.30;5.22;;;;;;;6.37;91.44;94336.31;4963904;28;20666;-74
2023/04/11 03:06:53;;;;;;;14.35;6.70;;;;;;;6.25;91.57;94334.19;4961801;28;20246;-74
2023/04/11 03:09:21;;;;;;;12.77;7.00;;;;;;;6.31;91.65;94338.31;4949416;28;20211;-73
2023/04/11 03:11:48;;;;;;;8.90;5.05;;;;;;;6.28;91.52;94333.56;4970378;28;20644;-78
2023/04/11 03:14:15;;;;;;;9.30;4.57;;;;;;;6.30;90.84;94341.31;4992281;28;20296;-75
2023/04/11 03:16:42;;;;;;;11.85;6.05;;;;;;;6.32;90.79;94339.13;4979222;28;20221;-74
2023/04/11 03:19:09;;;;;;;13.52;6.65;;;;;;;6.31;90.76;94343.69;4991550;28;20212;-74
2023/04/11 03:21:36;;;;;;;10.00;4.53;;;;;;;6.30;90.39;94336.72;4991702;28;20213;-74
2023/04/11 03:24:04;;;;;;;9.10;5.65;;;;;;;6.29;90.53;94348.59;4982420;28;20202;-74
2023/04/11 03:26:31;;;;;;;11.52;6.00;;;;;;;6.27;90.66;94342.75;4988944;28;20316;-73
2023/04/11 03:28:58;;;;;;;7.55;4.40;;;;;;;6.26;90.24;94334.97;4981329;28;20211;-76
2023/04/11 03:31:25;;;;;;;14.45;6.57;;;;;;;6.27;89.81;94336.56;4982730;28;20249;-75
2023/04/11 03:33:52;;;;;;;9.45;5.80;;;;;;;6.34;90.14;94345.78;4991401;28;20205;-73
2023/04/11 03:36:21;;;;;;;16.02;5.80;;;;;;;6.35;90.24;94342.00;4990794;28;20209;-75
2023/04/11 03:38:48;;;;;;;11.02;5.68;;;;;;;6.33;89.48;94336.13;4991282;28;20202;-73
2023/04/11 03:41:16;;;;;;;9.30;5.35;;;;;;;6.31;89.57;94335.63;4978070;28;20221;-74
2023/04/11 03:43:43;;;;;;;9.05;5.15;;;;;;;6.37;89.65;94347.06;4991476;28;20197;-74
2023/04/11 03:46:09;;;;;;;8.55;4.75;;;;;;;6.38;88.83;94345.97;4986394;28;20273;-74
2023/04/11 03:48:36;;;;;;;15.88;6.47;;;;;;;6.41;89.34;94337.28;4982546;28;20205;-74
2023/04/11 03:51:03;;;;;;;8.40;4.97;;;;;;;6.46;88.99;94336.34;4990663;28;20202;-74
2023/04/11 03:53:30;;;;;;;11.85;5.85;;;;;;;6.43;88.94;94346.63;4990852;28;20566;-75
2023/04/11 03:55:57;;;;;;;16.20;6.53;;;;;;;6.38;89.16;94333.31;4990528;28;20201;-74
2023/04/11 03:58:25;;;;;;;8.95;3.90;;;;;;;6.51;88.82;94336.22;4990809;28;20217;-75
2023/04/11 04:00:52;;;;;;;10.85;4.97;;;;;;;6.47;88.94;94336.03;4985243;28;20246;-74
2023/04/11 04:03:19;;;;;;;11.15;6.10;;;;;;;6.42;88.76;94338.88;4983602;28;20210;-74
2023/04/11 04:05:46;;;;;;;8.65;4.63;;;;;;;6.53;88.61;94344.78;4990465;28;20205;-75
2023/04/11 04:08:13;;;;;;;6.60;4.68;;;;;;;6.46;88.42;94345.22;4990620;28;20316;-74
2023/04/11 04:10:40;;;;;;;10.52;5.47;;;;;;;6.41;88.63;94340.78;4990374;28;20198;-74
2023/04/11 04:13:07;;;;;;;10.32;5.78;;;;;;;6.36;88.80;94338.19;4990658;28;20205;-74
2023/04/11 04:15:35;;;;;;;15.23;6.68;;;;;;;6.43;88.93;94345.81;4990425;28;20209;-76
2023/04/11 04:18:02;;;;;;;14.85;6.90;;;;;;;6.33;89.10;94346.09;4976716;28;20285;-74
2023/04/11 04:20:29;;;;;;;9.70;5.85;;;;;;;6.32;89.47;94349.88;4964881;28;20205;-75
2023/04/11 04:22:56;;;;;;;11.65;7.13;;;;;;;6.28;89.65;94349.72;4989491;28;20429;-74
2023/04/11 04:25:24;;;;;;;9.65;5.72;;;;;;;6.26;89.69;94341.16;4971086;28;20382;-75
2023/04/11 04:27:52;;;;;;;16.17;7.50;;;;;;;6.32;89.75;94334.53;4984486;28;20902;-75
2023/04/11 04:30:20;;;;;;;12.27;7.05;;;;;;;6.34;89.50;94331.53;4979578;28;20285;-75
2023/04/11 04:32:53;;;;;;;13.35;7.38;;;;;;;6.21;89.38;94333.19;4972887;28;20199;-75
2023/04/11 04:35:20;;;;;;;11.95;6.38;;;;;;;6.26;89.67;94346.53;4990184;28;20734;-73
2023/04/11 04:37:47;;;;;;;12.65;7.18;;;;;;;6.34;89.45;94335.03;4989768;28;20304;-75
2023/04/11 04:40:14;;;;;;;10.40;5.68;;;;;;;6.28;89.31;94341.66;4990132;28;20600;-76
2023/04/11 04:42:42;;;;;;;12.05;6.40;;;;;;;6.26;89.60;94340.38;4990398;28;20218;-76
2023/04/11 04:45:10;;;;;;;12.57;5.63;;;;;;;6.32;89.41;94334.53;4980829;28;20280;-74
2023/04/11 04:47:37;;;;;;;12.27;6.40;;;;;;;6.20;89.35;94339.69;4986161;28;20311;-76
2023/04/11 04:50:07;;;;;;;11.98;6.40;;;;;;;6.12;89.61;94340.44;4989770;28;20210;-73
2023/04/11 04:52:33;;;;;;;13.48;6.80;;;;;;;6.15;89.47;94330.97;4976534;28;20202;-73
2023/04/11 04:55:00;;;;;;;15.70;7.68;;;;;;;6.18;89.77;94335.69;4989490;28;20201;-74
2023/04/11 04:57:28;;;;;;;11.15;5.63;;;;;;;6.16;89.71;94336.00;4986010;28;20226;-74
2023/04/11 04:59:56;;;;;;;17.73;7.47;;;;;;;6.22;89.13;94334.78;4980899;28;20202;-74
2023/04/11 05:02:24;;;;;;;13.70;6.80;;;;;;;6.13;89.21;94333.97;4989512;28;20205;-75
2023/04/11 05:04:52;;;;;;;14.52;6.30;;;;;;;6.12;89.27;94335.06;4989973;28;20213;-74
2023/04/11 05:07:21;;;;;;;13.52;6.78;;;;;;;6.20;89.05;94337.00;4988799;28;20249;-74
2023/04/11 05:09:48;;;;;;;7.05;5.18;;;;;;;6.15;88.07;94320.97;4989442;28;20201;-77
2023/04/11 05:12:15;;;;;;;12.73;6.38;;;;;;;6.29;88.07;94334.34;4976284;28;20209;-74
2023/04/11 05:14:42;;;;;;;11.23;5.72;;;;;;;6.27;87.86;94334.69;4977768;28;20932;-74
2023/04/11 05:17:09;;;;;;;14.05;7.68;;;;;;;6.27;87.86;94331.19;4982589;28;20209;-74
2023/04/11 05:19:36;;;;;;;13.27;6.75;;;;;;;6.45;87.23;94332.06;4981548;28;20297;-75
2023/04/11 05:22:02;;;;;;;12.30;5.72;;;;;;;6.41;86.89;94327.31;4989116;28;20309;-73
2023/04/11 05:24:31;;;;;;;12.00;6.22;;;;;;;6.47;86.85;94336.03;4975888;28;20213;-73
2023/04/11 05:26:59;;;;;;;15.40;7.13;;;;;;;6.53;87.01;94331.34;4982313;28;20245;-73
2023/04/11 05:29:26;;;;;;;14.88;7.78;;;;;;;6.58;86.40;94331.19;4982434;28;20209;-74
2023/04/11 05:31:53;;;;;;;8.93;4.28;;;;;;;6.66;86.21;94322.38;4977030;28;20212;-73
2023/04/11 05:34:20;;;;;;;15.10;7.57;;;;;;;6.64;85.89;94329.97;4987373;28;20695;-76
2023/04/11 05:36:47;;;;;;;9.82;5.53;;;;;;;6.71;85.15;94327.59;4977149;28;20232;-74
2023/04/11 05:39:16;;;;;;;11.93;6.80;;;;;;;6.91;84.88;94323.56;4988502;28;20205;-74
2023/04/11 05:41:44;;;;;;;9.63;5.72;;;;;;;7.16;84.13;94324.75;4988847;28;20309;-74
2023/04/11 05:44:13;;;;;;;17.70;7.25;;;;;;;7.34;83.32;94319.09;4975797;28;20300;-73
2023/04/11 05:46:40;;;;;;;13.23;6.70;;;;;;;7.66;81.62;94308.97;4988566;28;20668;-74
2023/04/11 05:49:06;;;;;;;12.38;6.57;;;;;;;7.65;81.17;94302.81;4973739;28;20233;-75
2023/04/11 05:51:34;;;;;;;12.60;6.82;;;;;;;7.87;80.23;94311.84;4978005;28;20213;-73
2023/04/11 05:54:04;;;;;;;11.77;6.63;;;;;;;7.93;80.17;94318.63;4988442;28;20260;-74
2023/04/11 05:56:36;;;;;;;11.02;7.03;;;;;;;8.14;79.23;94295.31;4988515;28;20249;-77
2023/04/11 05:59:04;;;;;;;7.95;4.47;;;;;;;8.32;78.65;94305.00;4988428;28;20209;-75
2023/04/11 06:01:31;;;;;;;10.93;5.68;;;;;;;8.34;78.79;94293.84;4988170;28;20205;-73
2023/04/11 06:03:58;;;;;;;10.70;6.97;;;;;;;8.81;77.18;94281.16;4988385;28;20292;-74
2023/04/11 06:06:24;;;;;;;8.55;4.47;;;;;;;9.31;75.15;94297.41;4977075;28;20245;-75
2023/04/11 06:08:51;;;;;;;13.23;6.28;;;;;;;9.63;74.61;94287.81;4985727;28;20233;-74
2023/04/11 06:11:18;;;;;;;14.98;6.40;;;;;;;9.85;72.35;94292.88;4976874;28;20206;-73
2023/04/11 06:13:45;;;;;;;8.35;5.30;;;;;;;9.24;73.88;94284.44;4986348;28;20205;-73
2023/04/11 06:16:13;;;;;;;11.07;6.80;;;;;;;8.61;76.62;94292.69;4977598;28;20202;-73
2023/04/11 06:18:42;;;;;;;10.88;6.72;;;;;;;8.50;77.27;94276.81;4986803;28;21054;-73
2023/04/11 06:21:11;;;;;;;13.30;7.43;;;;;;;8.48;77.81;94265.56;4987775;28;20681;-74
2023/04/11 06:23:38;;;;;;;11.70;6.47;;;;;;;9.23;75.50;94279.34;4981264;28;20645;-71
2023/04/11 06:26:05;;;;;;;16.63;11.35;;;;;;;9.17;75.35;94272.53;4977910;28;20198;-73
2023/04/11 06:28:32;;;;;;;11.10;5.85;;;;;;;9.09;74.82;94276.88;4967735;28;20232;-73
2023/04/11 06:30:59;;;;;;;13.68;6.07;;;;;;;9.32;74.08;94279.28;4981382;28;20710;-73
2023/04/11 06:33:30;;;;;;;13.07;7.55;;;;;;;9.26;75.04;94282.19;4987986;28;20212;-73
2023/04/11 06:35:56;;;;;;;15.80;8.05;;;;;;;9.55;73.55;94267.06;4986914;28;20600;-74
2023/04/11 06:38:23;;;;;;;11.20;6.03;;;;;;;9.73;72.63;94251.47;4975806;28;20213;-75
2023/04/11 06:40:53;;;;;;;9.88;6.53;;;;;;;10.11;70.98;94270.25;4968521;28;20205;-74
2023/04/11 06:43:20;;;;;;;8.55;4.70;;;;;;;10.60;69.60;94261.16;4964067;28;20233;-74
2023/04/11 06:45:48;;;;;;;8.68;5.28;;;;;;;11.07;68.91;94265.38;4975646;28;20237;-72
2023/04/11 06:48:16;;;;;;;9.25;4.63;;;;;;;11.24;67.81;94257.78;4966628;28;20311;-73
2023/04/11 06:50:45;;;;;;;8.65;4.70;;;;;;;10.97;68.40;94250.31;4975086;28;20214;-73
2023/04/11 06:53:12;;;;;;;6.60;4.32;;;;;;;10.31;69.36;94253.19;4974470;28;20206;-79
2023/04/11 06:55:41;;;;;;;8.98;5.57;;;;;;;9.75;71.13;94258.13;4972214;28;20217;-74
2023/04/11 06:58:08;;;;;;;6.65;4.28;;;;;;;9.60;72.44;94261.44;4980158;28;20217;-72
2023/04/11 07:00:34;;;;;;;10.88;5.15;;;;;;;9.86;70.84;94272.03;4970512;28;20298;-75
2023/04/11 07:03:06;;;;;;;7.65;5.25;;;;;;;9.51;71.63;94263.44;4967755;28;20616;-71
2023/04/11 07:05:33;;;;;;;6.80;2.90;;;;;;;9.46;71.51;94269.81;4968397;28;20289;-74
2023/04/11 07:08:01;;;;;;;5.75;3.30;;;;;;;9.21;72.30;94276.97;4966857;28;20743;-73
2023/04/11 07:10:28;;;;;;;11.45;6.03;;;;;;;8.75;73.62;94268.94;4962014;28;20207;-73
2023/04/11 07:12:55;;;;;;;7.63;4.30;;;;;;;9.25;73.15;94277.91;4962505;28;20788;-73
2023/04/11 07:15:22;;;;;;;9.07;4.60;;;;;;;8.89;74.09;94266.81;4965701;28;20225;-75
2023/04/11 07:17:49;;;;;;;8.90;5.05;;;;;;;9.24;73.55;94272.81;4967656;28;20209;-72
2023/04/11 07:20:16;;;;;;;7.13;4.38;;;;;;;9.10;73.53;94262.25;4966615;28;20202;-71
2023/04/11 07:22:45;;;;;;;10.18;7.18;;;;;;;8.72;74.59;94272.31;4957853;28;20261;-75
2023/04/11 07:25:13;;;;;;;6.25;3.80;;;;;;;9.00;74.55;94265.34;4962695;28;20673;-72
2023/04/11 07:27:42;;;;;;;5.63;3.60;;;;;;;9.21;73.29;94263.47;4965394;28;20717;-72
2023/04/11 07:30:10;;;;;;;6.40;4.03;;;;;;;9.45;72.81;94264.72;4964325;28;20240;-73
2023/04/11 07:32:37;;;;;;;12.98;9.05;;;;;;;9.55;72.69;94257.03;4965207;28;20578;-72
2023/04/11 07:35:04;;;;;;;7.93;5.47;;;;;;;10.01;72.26;94247.09;4963729;28;20209;-72
2023/04/11 07:37:31;;;;;;;7.25;4.10;;;;;;;10.26;70.09;94253.38;4967926;28;20206;-73
2023/04/11 07:39:58;;;;;;;10.63;5.88;;;;;;;10.99;68.85;94248.06;4969494;28;20203;-74
2023/04/11 07:42:26;;;;;;;5.70;3.55;;;;;;;10.90;68.07;94239.28;4963780;28;20218;-72
2023/04/11 07:44:53;;;;;;;7.90;4.63;;;;;;;10.28;68.94;94224.88;4962143;28;20724;-73
2023/04/11 07:47:20;;;;;;;5.47;3.85;;;;;;;10.04;69.85;94232.88;4967163;28;20264;-73
2023/04/11 07:49:47;;;;;;;6.13;4.15;;;;;;;9.76;70.11;94240.78;4962784;28;20213;-74
2023/04/11 07:52:14;;;;;;;8.82;6.07;;;;;;;9.99;70.75;94233.88;4962870;28;20215;-72
2023/04/11 07:54:41;;;;;;;4.78;3.50;;;;;;;9.65;69.93;94206.38;4970535;28;20219;-73
2023/04/11 07:57:07;;;;;;;7.55;4.90;;;;;;;10.25;69.63;94228.22;4972465;28;20203;-71
2023/04/11 07:59:36;;;;;;;9.85;5.18;;;;;;;10.46;69.17;94230.09;4972287;28;20206;-72
2023/04/11 08:02:03;;;;;;;7.85;4.00;;;;;;;9.91;69.82;94225.84;4977226;28;20206;-80
2023/04/11 08:04:32;;;;;;;6.03;3.50;;;;;;;9.90;70.05;94216.94;4967955;28;20234;-73
2023/04/11 08:06:59;;;;;;;11.05;7.72;;;;;;;10.69;69.13;94217.69;4962936;28;20226;-71
2023/04/11 08:09:27;;;;;;;9.75;6.82;;;;;;;10.87;67.55;94218.28;4970004;28;20222;-72
2023/04/11 08:11:55;;;;;;;10.68;7.40;;;;;;;11.44;66.58;94214.59;4965349;28;20210;-75
2023/04/11 08:14:22;;;;;;;9.05;6.50;;;;;;;10.73;65.80;94217.81;4967968;28;20261;-75
2023/04/11 08:16:52;;;;;;;8.35;5.97;;;;;;;10.58;66.32;94216.56;4968172;28;20207;-75
2023/04/11 08:19:18;;;;;;;10.68;6.72;;;;;;;10.71;66.59;94207.31;4969660;28;20510;-78
2023/04/11 08:21:45;;;;;;;8.98;6.63;;;;;;;11.17;65.79;94199.84;4968177;28;20207;-73
2023/04/11 08:24:12;;;;;;;7.60;5.20;;;;;;;10.91;65.27;94205.63;4966856;28;20202;-73
2023/04/11 08:26:39;;;;;;;7.70;3.90;;;;;;;10.89;65.73;94205.19;4972044;28;20761;-74
2023/04/11 08:29:09;;;;;;;6.80;4.78;;;;;;;11.17;64.33;94199.84;4968092;28;20236;-72
2023/04/11 08:31:42;;;;;;;7.40;4.10;;;;;;;10.87;64.54;94186.53;4961664;28;20313;-73
2023/04/11 08:34:10;;;;;;;9.70;5.22;;;;;;;11.01;64.66;94191.63;4963223;28;20225;-74
2023/04/11 08:36:37;;;;;;;10.90;6.95;;;;;;;11.03;64.26;94190.16;4967789;28;20568;-74
2023/04/11 08:39:04;;;;;;;8.45;5.00;;;;;;;11.54;64.70;94186.97;4967021;28;20210;-74
2023/04/11 08:41:31;;;;;;;8.35;5.07;;;;;;;10.81;65.76;94189.81;4964566;28;20214;-73
2023/04/11 08:43:58;;;;;;;7.75;4.90;;;;;;;10.91;65.54;94181.25;4962787;28;20242;-74
2023/04/11 08:46:25;;;;;;;11.10;7.68;;;;;;;10.80;65.28;94174.69;4970987;28;20261;-72
2023/04/11 08:48:52;;;;;;;9.02;3.78;;;;;;;11.12;64.25;94178.38;4970979;28;20222;-73
2023/04/11 08:51:26;;;;;;;6.28;3.72;;;;;;;11.19;63.59;94176.69;4977868;28;20233;-75
2023/04/11 08:53:56;;;;;;;9.73;6.93;;;;;;;11.54;62.58;94166.06;4981590;28;20841;-74
2023/04/11 08:56:23;;;;;;;6.47;3.15;;;;;;;10.99;63.10;94128.84;4980016;28;20205;-72
2023/04/11 08:58:50;;;;;;;6.88;4.32;;;;;;;11.91;63.25;94166.72;4976271;28;20283;-72
2023/04/11 09:01:30;;;;;;;5.88;3.47;;;;;;;11.45;64.23;94178.19;4978504;28;20341;-74
2023/04/11 09:03:58;;;;;;;8.85;4.13;;;;;;;11.26;62.31;94136.22;4961867;28;20201;-74
2023/04/11 09:06:29;;;;;;;7.90;4.25;;;;;;;11.82;61.44;94151.75;4967936;28;20570;-73
2023/04/11 09:08:56;;;;;;;5.75;3.55;;;;;;;11.68;60.84;94154.81;4961298;28;20808;-74
2023/04/11 09:11:24;;;;;;;6.90;3.17;;;;;;;11.88;60.37;94143.03;4968532;28;20857;-74
2023/04/11 09:14:06;;;;;;;8.85;6.15;;;;;;;12.66;59.24;94139.53;4965463;28;20209;-73
2023/04/11 09:16:33;;;;;;;5.75;4.15;;;;;;;12.87;58.21;94122.13;4956577;28;20294;-71
2023/04/11 09:19:00;;;;;;;5.57;3.30;;;;;;;12.32;58.88;94148.38;4963166;28;20214;-73
2023/04/11 09:21:28;;;;;;;6.97;3.50;;;;;;;12.22;60.31;94135.34;4966123;28;20213;-72
2023/04/11 09:24:13;;;;;;;8.95;6.15;;;;;;;12.76;57.69;94122.69;4966940;28;20202;-72
2023/04/11 09:26:40;;;;;;;6.47;4.47;;;;;;;12.44;57.24;94121.13;4969067;28;20211;-72
2023/04/11 09:29:07;;;;;;;4.70;3.13;;;;;;;12.27;60.02;94124.22;4964289;28;20236;-73
2023/04/11 09:31:42;;;;;;;3.45;2.30;;;;;;;13.00;57.90;94110.78;4970490;28;20218;-74
2023/04/11 09:34:08;;;;;;;6.40;3.85;;;;;;;13.49;56.87;94119.25;4966317;28;20288;-72
2023/04/11 09:36:37;;;;;;;9.38;6.03;;;;;;;13.50;55.08;94107.22;4970070;28;20246;-73
2023/04/11 09:39:16;;;;;;;8.73;5.72;;;;;;;12.74;56.53;94116.81;4966477;28;20203;-73
2023/04/11 09:41:43;;;;;;;8.48;6.15;;;;;;;12.34;58.09;94110.81;4967311;28;20261;-75
2023/04/11 09:44:10;;;;;;;21.80;7.63;;;;;;;11.97;60.08;94104.84;4969890;28;20301;-73
2023/04/11 09:46:37;;;;;;;16.25;7.45;;;;;;;11.91;59.80;94081.81;4966882;28;20256;-74
2023/04/11 09:49:04;;;;;;;8.15;5.10;;;;;;;12.20;59.65;94091.44;4970321;28;20236;-73
2023/04/11 09:51:31;;;;;;;9.55;6.65;;;;;;;12.06;59.23;94100.81;4979883;28;20292;-72
2023/04/11 09:54:02;;;;;;;11.48;7.72;;;;;;;12.03;60.37;94070.84;4960310;28;20289;-74
2023/04/11 09:56:30;;;;;;;10.82;6.50;;;;;;;12.12;58.63;94081.56;4969479;28;20222;-72
2023/04/11 09:59:00;;;;;;;11.68;7.05;;;;;;;11.94;59.75;94087.31;4963130;28;20296;-74
2023/04/11 10:01:27;;;;;;;12.18;7.68;;;;;;;12.20;58.82;94073.22;4967536;28;20236;-79
2023/04/11 10:03:55;;;;;;;11.60;7.53;;;;;;;11.94;59.35;94081.91;4966173;28;20333;-73
2023/04/11 10:06:32;;;;;;;9.00;5.93;;;;;;;11.97;59.25;94080.41;4966135;28;20334;-74
2023/04/11 10:09:08;;;;;;;8.50;6.25;;;;;;;11.88;59.09;94077.09;4958356;28;21049;-72
2023/04/11 10:11:35;;;;;;;9.43;6.60;;;;;;;11.87;59.55;94065.44;4971081;28;20297;-74
2023/04/11 10:14:02;;;;;;;10.05;6.80;;;;;;;12.05;58.85;94069.38;4968987;28;20725;-73
2023/04/11 10:16:32;;;;;;;9.43;6.38;;;;;;;11.60;59.02;94068.97;4983430;28;20204;-78
2023/04/11 10:19:25;;;;;;;9.60;7.13;;;;;;;12.02;57.83;94061.97;4963510;28;20206;-72
2023/04/11 10:21:52;;;;;;;8.50;6.05;;;;;;;12.10;57.02;94060.97;4974445;28;20205;-79
2023/04/11 10:24:21;;;;;;;6.72;4.65;;;;;;;11.52;57.42;94067.19;4971633;28;20214;-73
2023/04/11 10:26:50;;;;;;;8.77;6.25;;;;;;;11.79;57.96;94058.25;4980269;28;20206;-74
2023/04/11 10:29:47;;;;;;;12.27;7.20;;;;;;;12.02;56.58;94066.59;4964014;28;20241;-72
2023/04/11 10:32:22;;;;;;;11.52;6.60;;;;;;;12.27;55.93;94016.38;4967381;28;20213;-72
2023/04/11 10:35:32;;;;;;;7.68;5.47;;;;;;;12.87;53.59;94027.00;4969989;28;20787;-71
2023/04/11 10:37:58;;;;;;;8.98;6.65;;;;;;;12.92;54.74;94021.28;4959054;28;20244;-72
2023/04/11 10:40:27;;;;;;;10.55;7.35;;;;;;;12.82;55.01;94022.66;4963562;28;20215;-73
2023/04/11 10:42:54;;;;;;;9.65;6.72;;;;;;;12.54;56.05;94001.09;4963874;28;20198;-73
2023/04/11 10:45:23;;;;;;;10.93;7.35;;;;;;;12.53;56.48;93999.50;4965145;28;20244;-72
2023/04/11 10:48:10;;;;;;;10.32;5.95;;;;;;;12.41;56.41;94024.88;4966986;28;20233;-71
2023/04/11 10:50:44;;;;;;;8.77;6.03;;;;;;;12.20;55.76;94007.28;4969585;28;20252;-81
2023/04/11 10:53:36;;;;;;;9.00;6.70;;;;;;;12.24;55.10;93991.88;4964131;28;20228;-79
2023/04/11 10:56:05;;;;;;;9.43;6.63;;;;;;;12.64;53.59;93994.31;4965612;28;20278;-73
2023/04/11 10:58:37;;;;;;;7.75;6.03;;;;;;;12.88;54.40;94004.09;4964803;28;20202;-73
2023/04/11 11:01:18;;;;;;;12.38;7.20;;;;;;;12.96;53.63;93989.53;4977844;28;20265;-72
2023/04/11 11:03:58;;;;;;;11.65;7.30;;;;;;;13.04;53.11;93996.69;4977330;28;20201;-74
2023/04/11 11:06:28;;;;;;;8.65;5.95;;;;;;;13.09;53.31;93993.69;4969145;28;20283;-73
2023/04/11 11:08:54;;;;;;;13.15;6.47;;;;;;;13.50;51.49;93971.19;4986394;28;20229;-73
2023/04/11 11:11:23;;;;;;;9.63;6.68;;;;;;;13.89;51.40;93981.94;4987310;28;20213;-74
2023/04/11 11:13:51;;;;;;;10.10;6.80;;;;;;;14.02;52.32;93980.59;4987338;28;20269;-73
2023/04/11 11:16:19;;;;;;;8.43;5.97;;;;;;;13.79;50.71;93971.66;4987652;28;20231;-74
2023/04/11 11:18:47;;;;;;;5.03;3.88;;;;;;;13.36;51.01;93965.47;4981000;28;20210;-81
2023/04/11 11:21:18;;;;;;;8.60;6.18;;;;;;;13.18;52.02;93969.78;4980658;28;20866;-74
2023/04/11 11:23:58;;;;;;;9.63;6.50;;;;;;;13.00;53.17;93968.63;4967261;28;20684;-75
2023/04/11 11:26:41;;;;;;;13.60;6.38;;;;;;;12.81;53.12;93967.50;4983213;28;20208;-74
2023/04/11 11:29:08;;;;;;;11.05;7.28;;;;;;;12.56;54.16;93971.63;4986107;28;20240;-73
2023/04/11 11:31:38;;;;;;;10.77;5.43;;;;;;;12.44;53.80;93963.59;4982612;28;20257;-73
2023/04/11 11:34:05;;;;;;;9.73;6.60;;;;;;;12.75;54.07;93971.63;4983127;28;20241;-73
2023/04/11 11:36:35;;;;;;;7.47;5.63;;;;;;;12.74;52.88;93961.13;4990973;28;20212;-74
2023/04/11 11:39:04;;;;;;;7.90;5.22;;;;;;;13.24;51.50;93957.50;4990790;28;20205;-78
2023/04/11 11:41:33;;;;;;;10.18;5.78;;;;;;;13.02;51.85;93955.47;4978049;28;20252;-73